Time;durP1;ratioP1;P1;durP2;ratioP2;P2;SDS_P1;SDS_P2;PMS_P1;PMS_P2;Temp;Humidity;BMP_temperature;BMP_pressure;BME280_temperature;BME280_humidity;BME280_pressure;Samples;Min_cycle;Max_cycle;Signal;HPM_P1;HPM_P2
2021/07/05 00:01:48;;;;;;;1.02;0.43;;;;;;;;;;5093265;28;20036;-58
2021/07/05 00:04:14;;;;;;;1.55;0.65;;;;;;;;;;5092134;28;20023;-58
2021/07/05 00:06:40;;;;;;;1.02;0.50;;;;;;;;;;5094042;28;20076;-58
2021/07/05 00:09:06;;;;;;;1.80;0.85;;;;;;;;;;5092621;28;20130;-58
2021/07/05 00:11:33;;;;;;;1.90;0.60;;;;;;;;;;5094281;28;20025;-58
2021/07/05 00:13:59;;;;;;;0.93;0.40;;;;;;;;;;5093462;28;20020;-58
2021/07/05 00:16:25;;;;;;;2.70;0.88;;;;;;;;;;5094186;28;20043;-58
2021/07/05 00:18:52;;;;;;;1.30;0.47;;;;;;;;;;5093633;28;20468;-58
2021/07/05 00:21:18;;;;;;;1.05;0.50;;;;;;;;;;5092080;28;20028;-58
2021/07/05 00:23:48;;;;;;;1.00;0.50;;;;;;;;;;5093183;28;20081;-58
2021/07/05 00:26:14;;;;;;;2.40;0.60;;;;;;;;;;5093364;28;20028;-58
2021/07/05 00:28:40;;;;;;;1.83;0.80;;;;;;;;;;5092023;28;20408;-58
2021/07/05 00:31:06;;;;;;;1.45;0.73;;;;;;;;;;5093093;28;20039;-58
2021/07/05 00:33:36;;;;;;;1.73;0.90;;;;;;;;;;5091947;28;20040;-58
2021/07/05 00:36:01;;;;;;;2.10;0.85;;;;;;;;;;5092246;28;20024;-58
2021/07/05 00:38:27;;;;;;;0.75;0.50;;;;;;;;;;5093394;28;20053;-58
2021/07/05 00:40:53;;;;;;;1.17;0.47;;;;;;;;;;5094064;28;20434;-58
2021/07/05 00:43:19;;;;;;;2.95;0.65;;;;;;;;;;5093594;28;20039;-58
2021/07/05 00:45:45;;;;;;;1.50;0.65;;;;;;;;;;5093881;28;20035;-58
2021/07/05 00:48:14;;;;;;;3.83;0.95;;;;;;;;;;5093391;28;20107;-58
2021/07/05 00:50:41;;;;;;;1.42;0.52;;;;;;;;;;5093581;28;20143;-58
2021/07/05 00:53:07;;;;;;;0.80;0.50;;;;;;;;;;5092228;28;20064;-58
2021/07/05 00:55:35;;;;;;;1.45;0.90;;;;;;;;;;5093653;28;20134;-58
2021/07/05 00:58:01;;;;;;;1.25;0.50;;;;;;;;;;5093282;28;20346;-57
2021/07/05 01:00:28;;;;;;;4.35;0.57;;;;;;;;;;5095896;28;20024;-58
2021/07/05 01:02:54;;;;;;;1.60;0.70;;;;;;;;;;5097495;28;20036;-58
2021/07/05 01:05:21;;;;;;;1.70;0.40;;;;;;;;;;5096778;28;20073;-58
2021/07/05 01:07:47;;;;;;;1.48;0.60;;;;;;;;;;5095573;28;20393;-58
2021/07/05 01:10:15;;;;;;;1.83;0.77;;;;;;;;;;5096983;28;20428;-58
2021/07/05 01:12:42;;;;;;;1.90;0.82;;;;;;;;;;5097321;28;20059;-58
2021/07/05 01:15:09;;;;;;;1.95;1.05;;;;;;;;;;5096784;28;20052;-58
2021/07/05 01:17:37;;;;;;;1.50;0.68;;;;;;;;;;5096692;28;20028;-58
2021/07/05 01:20:04;;;;;;;1.45;0.52;;;;;;;;;;5096536;28;20024;-58
2021/07/05 01:22:30;;;;;;;1.35;0.60;;;;;;;;;;5096254;28;20028;-58
2021/07/05 01:24:56;;;;;;;2.33;0.68;;;;;;;;;;5096486;28;20107;-58
2021/07/05 01:27:23;;;;;;;1.45;0.80;;;;;;;;;;5096722;28;20335;-58
2021/07/05 01:29:49;;;;;;;1.92;0.77;;;;;;;;;;5095750;28;20052;-58
2021/07/05 01:32:15;;;;;;;2.03;0.93;;;;;;;;;;5096496;28;20059;-58
2021/07/05 01:34:41;;;;;;;1.45;0.65;;;;;;;;;;5096676;28;20074;-58
2021/07/05 01:37:08;;;;;;;1.35;0.75;;;;;;;;;;5096268;28;20052;-58
2021/07/05 01:39:34;;;;;;;2.10;1.10;;;;;;;;;;5096507;28;20028;-58
2021/07/05 01:42:04;;;;;;;1.35;0.68;;;;;;;;;;5096732;28;20112;-58
2021/07/05 01:44:30;;;;;;;2.15;0.90;;;;;;;;;;5096140;28;20493;-57
2021/07/05 01:46:56;;;;;;;1.27;0.57;;;;;;;;;;5096890;28;20024;-58
2021/07/05 01:49:22;;;;;;;2.00;0.77;;;;;;;;;;5094785;28;20020;-58
2021/07/05 01:51:48;;;;;;;2.58;1.02;;;;;;;;;;5096496;28;20028;-58
2021/07/05 01:54:15;;;;;;;1.13;0.45;;;;;;;;;;5095965;28;20024;-58
2021/07/05 01:56:43;;;;;;;2.83;0.68;;;;;;;;;;5095944;28;20115;-58
2021/07/05 01:59:09;;;;;;;1.63;0.77;;;;;;;;;;5094577;28;20077;-58
2021/07/05 02:01:37;;;;;;;1.67;0.65;;;;;;;;;;5096077;28;20101;-58
2021/07/05 02:04:03;;;;;;;1.95;0.82;;;;;;;;;;5095724;28;20396;-58
2021/07/05 02:06:29;;;;;;;3.65;1.20;;;;;;;;;;5096271;28;20046;-58
2021/07/05 02:08:55;;;;;;;2.13;0.90;;;;;;;;;;5095619;28;20462;-58
2021/07/05 02:11:22;;;;;;;2.67;0.60;;;;;;;;;;5095081;28;20046;-58
2021/07/05 02:13:48;;;;;;;1.23;0.60;;;;;;;;;;5095569;28;20056;-57
2021/07/05 02:16:14;;;;;;;1.60;0.82;;;;;;;;;;5095559;28;20024;-58
2021/07/05 02:18:40;;;;;;;1.30;0.80;;;;;;;;;;5095437;28;20111;-58
2021/07/05 02:21:06;;;;;;;1.45;0.73;;;;;;;;;;5094491;28;20028;-58
2021/07/05 02:23:33;;;;;;;2.00;0.80;;;;;;;;;;5093985;28;20454;-58
2021/07/05 02:25:59;;;;;;;1.35;0.80;;;;;;;;;;5095365;28;20032;-58
2021/07/05 02:28:29;;;;;;;1.67;0.80;;;;;;;;;;5094988;28;20036;-58
2021/07/05 02:30:55;;;;;;;1.63;0.93;;;;;;;;;;5095279;28;20028;-58
2021/07/05 02:33:23;;;;;;;4.38;0.98;;;;;;;;;;5077436;28;20453;-58
2021/07/05 02:35:49;;;;;;;1.65;0.82;;;;;;;;;;5095158;28;20020;-58
2021/07/05 02:38:15;;;;;;;1.27;0.60;;;;;;;;;;5095134;28;20462;-57
2021/07/05 02:40:43;;;;;;;1.25;0.60;;;;;;;;;;5095399;28;20024;-58
2021/07/05 02:43:12;;;;;;;1.85;0.93;;;;;;;;;;5094521;28;20020;-58
2021/07/05 02:45:41;;;;;;;1.50;0.80;;;;;;;;;;5095035;28;20024;-58
2021/07/05 02:48:08;;;;;;;3.42;0.80;;;;;;;;;;5094968;28;20251;-58
2021/07/05 02:50:35;;;;;;;1.63;0.90;;;;;;;;;;5095176;28;20016;-58
2021/07/05 02:53:02;;;;;;;1.23;0.68;;;;;;;;;;5094242;28;20024;-58
2021/07/05 02:55:28;;;;;;;1.98;0.77;;;;;;;;;;5094751;28;20069;-57
2021/07/05 02:57:54;;;;;;;0.88;0.50;;;;;;;;;;5094709;28;20020;-57
2021/07/05 03:00:27;;;;;;;1.45;0.70;;;;;;;;;;5095018;28;20116;-58
2021/07/05 03:02:54;;;;;;;4.03;1.25;;;;;;;;;;5094571;28;20428;-58
2021/07/05 03:05:21;;;;;;;1.83;0.90;;;;;;;;;;5094452;28;20031;-58
2021/07/05 03:07:47;;;;;;;1.75;0.82;;;;;;;;;;5093752;28;20396;-58
2021/07/05 03:10:14;;;;;;;2.38;0.93;;;;;;;;;;5094915;28;20048;-58
2021/07/05 03:12:40;;;;;;;2.10;1.13;;;;;;;;;;5094700;28;20039;-58
2021/07/05 03:15:08;;;;;;;5.35;1.00;;;;;;;;;;5093259;28;20028;-58
2021/07/05 03:17:34;;;;;;;2.22;0.80;;;;;;;;;;5095171;28;20031;-58
2021/07/05 03:20:03;;;;;;;1.00;0.50;;;;;;;;;;5094282;28;20035;-58
2021/07/05 03:22:29;;;;;;;1.42;0.60;;;;;;;;;;5094170;28;20024;-58
2021/07/05 03:24:55;;;;;;;4.60;1.10;;;;;;;;;;5093775;28;20374;-58
2021/07/05 03:27:21;;;;;;;1.27;0.75;;;;;;;;;;5094134;28;20020;-58
2021/07/05 03:29:47;;;;;;;2.20;0.75;;;;;;;;;;5094450;28;20386;-58
2021/07/05 03:32:13;;;;;;;2.83;1.00;;;;;;;;;;5092942;28;20068;-57
2021/07/05 03:34:39;;;;;;;1.23;0.60;;;;;;;;;;5092908;28;20036;-57
2021/07/05 03:37:05;;;;;;;1.48;0.80;;;;;;;;;;5094150;28;20480;-58
2021/07/05 03:39:31;;;;;;;1.55;0.82;;;;;;;;;;5093391;28;20077;-58
2021/07/05 03:41:57;;;;;;;1.85;0.93;;;;;;;;;;5093349;28;20408;-58
2021/07/05 03:44:23;;;;;;;1.75;0.82;;;;;;;;;;5094518;28;20032;-58
2021/07/05 03:46:49;;;;;;;1.20;0.60;;;;;;;;;;5092703;28;20379;-58
2021/07/05 03:49:15;;;;;;;1.45;0.80;;;;;;;;;;5093941;28;20035;-58
2021/07/05 03:51:41;;;;;;;1.40;0.70;;;;;;;;;;5094229;28;20024;-58
2021/07/05 03:54:07;;;;;;;1.83;0.95;;;;;;;;;;5093837;28;20024;-58
2021/07/05 03:56:33;;;;;;;2.30;0.90;;;;;;;;;;5093113;28;20442;-58
2021/07/05 03:58:59;;;;;;;1.88;1.02;;;;;;;;;;5093804;28;20028;-58
2021/07/05 04:01:25;;;;;;;2.50;1.23;;;;;;;;;;5094111;28;20115;-58
2021/07/05 04:03:51;;;;;;;1.30;0.70;;;;;;;;;;5093616;28;20036;-58
2021/07/05 04:06:17;;;;;;;1.48;0.80;;;;;;;;;;5093370;28;20027;-58
2021/07/05 04:08:43;;;;;;;3.17;1.08;;;;;;;;;;5093943;28;20024;-59
2021/07/05 04:11:09;;;;;;;1.88;1.08;;;;;;;;;;5093752;28;20024;-58
2021/07/05 04:13:35;;;;;;;3.17;0.77;;;;;;;;;;5093666;28;20028;-58
2021/07/05 04:16:01;;;;;;;1.38;0.68;;;;;;;;;;5092408;28;20058;-58
2021/07/05 04:18:28;;;;;;;2.45;0.85;;;;;;;;;;5092332;28;20052;-58
2021/07/05 04:20:54;;;;;;;1.42;0.77;;;;;;;;;;5093834;28;20369;-58
2021/07/05 04:23:20;;;;;;;3.65;1.40;;;;;;;;;;5093846;28;20066;-58
2021/07/05 04:25:47;;;;;;;1.92;1.00;;;;;;;;;;5093581;28;20024;-58
2021/07/05 04:28:13;;;;;;;3.08;0.93;;;;;;;;;;5092321;28;20027;-58
2021/07/05 04:30:41;;;;;;;1.40;0.80;;;;;;;;;;5092363;28;20028;-58
2021/07/05 04:33:07;;;;;;;1.42;0.75;;;;;;;;;;5094337;28;20089;-58
2021/07/05 04:35:33;;;;;;;1.23;0.68;;;;;;;;;;5096247;28;20468;-58
2021/07/05 04:38:00;;;;;;;2.15;1.00;;;;;;;;;;5097019;28;20085;-57
2021/07/05 04:40:28;;;;;;;1.25;0.82;;;;;;;;;;5097381;28;20032;-58
2021/07/05 04:42:55;;;;;;;3.83;0.82;;;;;;;;;;5097809;28;20499;-58
2021/07/05 04:45:22;;;;;;;3.58;1.33;;;;;;;;;;5097916;28;20462;-58
2021/07/05 04:47:49;;;;;;;1.77;1.05;;;;;;;;;;5079161;28;20028;-58
2021/07/05 04:50:16;;;;;;;1.25;0.70;;;;;;;;;;5096067;28;20058;-58
2021/07/05 04:52:42;;;;;;;2.00;1.02;;;;;;;;;;5097792;28;20024;-58
2021/07/05 04:55:10;;;;;;;3.00;1.15;;;;;;;;;;5095907;28;20028;-58
2021/07/05 04:57:36;;;;;;;2.50;1.10;;;;;;;;;;5096755;28;20016;-57
2021/07/05 05:00:05;;;;;;;1.60;1.00;;;;;;;;;;5095809;28;20039;-58
2021/07/05 05:02:31;;;;;;;2.67;1.30;;;;;;;;;;5097339;28;20115;-58
2021/07/05 05:04:57;;;;;;;2.30;1.48;;;;;;;;;;5095312;28;20059;-58
2021/07/05 05:07:23;;;;;;;4.43;1.10;;;;;;;;;;5095684;28;20028;-58
2021/07/05 05:09:49;;;;;;;1.52;0.88;;;;;;;;;;5096907;28;20135;-58
2021/07/05 05:12:15;;;;;;;1.65;0.93;;;;;;;;;;5095531;28;20032;-58
2021/07/05 05:14:41;;;;;;;2.08;0.98;;;;;;;;;;5097321;28;20073;-58
2021/07/05 05:17:07;;;;;;;1.90;1.02;;;;;;;;;;5097186;28;20080;-58
2021/07/05 05:19:34;;;;;;;2.05;1.15;;;;;;;;;;5094996;28;20028;-58
2021/07/05 05:22:00;;;;;;;2.45;1.13;;;;;;;;;;5096209;28;20032;-57
2021/07/05 05:24:27;;;;;;;2.47;1.13;;;;;;;;;;5096664;28;20444;-58
2021/07/05 05:26:53;;;;;;;2.42;1.55;;;;;;;;;;5096509;28;20412;-58
2021/07/05 05:29:19;;;;;;;5.80;1.38;;;;;;;;;;5096919;28;20055;-58
2021/07/05 05:31:45;;;;;;;2.03;1.00;;;;;;;;;;5096782;28;20115;-58
2021/07/05 05:34:11;;;;;;;1.83;1.00;;;;;;;;;;5096662;28;20465;-57
2021/07/05 05:36:39;;;;;;;4.32;1.45;;;;;;;;;;5096281;28;20115;-58
2021/07/05 05:39:05;;;;;;;4.43;1.05;;;;;;;;;;5095447;28;20024;-58
2021/07/05 05:41:31;;;;;;;1.60;0.95;;;;;;;;;;5096399;28;20361;-57
2021/07/05 05:44:00;;;;;;;2.08;1.05;;;;;;;;;;5095469;28;20028;-58
2021/07/05 05:46:28;;;;;;;1.67;0.98;;;;;;;;;;5095756;28;20439;-57
2021/07/05 05:48:54;;;;;;;1.98;1.40;;;;;;;;;;5094585;28;20024;-58
2021/07/05 05:51:20;;;;;;;2.38;1.10;;;;;;;;;;5096703;28;20055;-57
2021/07/05 05:53:46;;;;;;;1.25;0.60;;;;;;;;;;5096490;28;20393;-58
2021/07/05 05:56:12;;;;;;;3.30;1.17;;;;;;;;;;5095942;28;20024;-58
2021/07/05 05:58:43;;;;;;;2.60;1.13;;;;;;;;;;5095880;28;20031;-58
2021/07/05 06:01:12;;;;;;;4.07;0.80;;;;;;;;;;5095934;28;20027;-58
2021/07/05 06:03:38;;;;;;;2.83;0.85;;;;;;;;;;5094573;28;20036;-57
2021/07/05 06:06:04;;;;;;;1.13;0.80;;;;;;;;;;5094466;28;20051;-59
2021/07/05 06:08:33;;;;;;;3.42;1.50;;;;;;;;;;5095767;28;20380;-58
2021/07/05 06:10:59;;;;;;;7.65;1.17;;;;;;;;;;5094504;28;20050;-58
2021/07/05 06:13:25;;;;;;;1.48;0.95;;;;;;;;;;5095701;28;20031;-58
2021/07/05 06:15:51;;;;;;;3.25;1.30;;;;;;;;;;5095526;28;20024;-58
2021/07/05 06:18:17;;;;;;;1.50;0.90;;;;;;;;;;5093967;28;20062;-58
2021/07/05 06:20:43;;;;;;;8.02;1.30;;;;;;;;;;5095393;28;20056;-58
2021/07/05 06:23:21;;;;;;;2.40;1.15;;;;;;;;;;5095443;28;20028;-58
2021/07/05 06:25:48;;;;;;;2.05;1.25;;;;;;;;;;5093906;28;20032;-58
2021/07/05 06:28:15;;;;;;;4.75;1.40;;;;;;;;;;5077438;28;20376;-58
2021/07/05 06:30:41;;;;;;;1.85;0.93;;;;;;;;;;5094035;28;20020;-58
2021/07/05 06:33:07;;;;;;;1.48;0.63;;;;;;;;;;5094056;28;20039;-58
2021/07/05 06:35:33;;;;;;;1.30;0.80;;;;;;;;;;5094806;28;20028;-58
2021/07/05 06:37:59;;;;;;;1.85;0.98;;;;;;;;;;5095118;28;20031;-58
2021/07/05 06:40:25;;;;;;;1.80;0.98;;;;;;;;;;5095108;28;20358;-58
2021/07/05 06:42:55;;;;;;;6.10;1.35;;;;;;;;;;5096147;28;20043;-58
2021/07/05 06:45:21;;;;;;;2.00;1.02;;;;;;;;;;5095005;28;20024;-58
2021/07/05 06:47:46;;;;;;;3.13;1.20;;;;;;;;;;5095787;28;20362;-58
2021/07/05 06:50:12;;;;;;;2.13;1.15;;;;;;;;;;5095668;28;20031;-58
2021/07/05 06:52:39;;;;;;;3.03;1.30;;;;;;;;;;5095766;28;20055;-57
2021/07/05 06:55:05;;;;;;;2.45;1.10;;;;;;;;;;5093567;28;20020;-58
2021/07/05 06:57:35;;;;;;;1.67;0.85;;;;;;;;;;5092969;28;20099;-58
2021/07/05 07:00:03;;;;;;;2.22;1.13;;;;;;;;;;5095330;28;20073;-58
2021/07/05 07:02:29;;;;;;;1.55;1.00;;;;;;;;;;5095508;28;20024;-58
2021/07/05 07:04:55;;;;;;;3.10;1.30;;;;;;;;;;5094060;28;20028;-58
2021/07/05 07:07:21;;;;;;;1.40;0.88;;;;;;;;;;5093831;28;20178;-58
2021/07/05 07:09:47;;;;;;;4.05;1.40;;;;;;;;;;5094742;28;20102;-59
2021/07/05 07:12:13;;;;;;;2.30;1.20;;;;;;;;;;5095294;28;20036;-58
2021/07/05 07:14:40;;;;;;;1.83;1.23;;;;;;;;;;5094719;28;20124;-59
2021/07/05 07:17:18;;;;;;;3.10;1.40;;;;;;;;;;5093512;28;20454;-59
2021/07/05 07:19:44;;;;;;;2.80;1.35;;;;;;;;;;5093863;28;20078;-58
2021/07/05 07:22:10;;;;;;;2.67;1.45;;;;;;;;;;5094568;28;20505;-59
2021/07/05 07:24:36;;;;;;;3.78;1.20;;;;;;;;;;5093831;28;20032;-59
2021/07/05 07:27:09;;;;;;;2.13;0.98;;;;;;;;;;5094200;28;20426;-59
2021/07/05 07:29:35;;;;;;;2.83;1.15;;;;;;;;;;5094549;28;20418;-59
2021/07/05 07:32:01;;;;;;;3.50;1.60;;;;;;;;;;5093364;28;20085;-59
2021/07/05 07:34:27;;;;;;;1.88;1.02;;;;;;;;;;5094222;28;20028;-59
2021/07/05 07:36:56;;;;;;;3.97;0.95;;;;;;;;;;5094124;28;20024;-58
2021/07/05 07:39:28;;;;;;;1.45;0.93;;;;;;;;;;5094908;28;20028;-59
2021/07/05 07:41:54;;;;;;;3.15;1.20;;;;;;;;;;5093074;28;20024;-59
2021/07/05 07:44:20;;;;;;;6.22;2.53;;;;;;;;;;5094235;28;20521;-59
2021/07/05 07:46:46;;;;;;;4.18;2.72;;;;;;;;;;5093977;28;20032;-59
2021/07/05 07:49:12;;;;;;;3.03;2.08;;;;;;;;;;5094304;28;20024;-59
2021/07/05 07:51:38;;;;;;;3.03;1.95;;;;;;;;;;5092459;28;20020;-59
2021/07/05 07:54:04;;;;;;;4.10;2.10;;;;;;;;;;5093440;28;20030;-59
2021/07/05 07:56:30;;;;;;;3.65;2.05;;;;;;;;;;5093419;28;20028;-59
2021/07/05 07:58:59;;;;;;;7.88;3.78;;;;;;;;;;5093910;28;20419;-59
2021/07/05 08:01:27;;;;;;;11.73;4.78;;;;;;;;;;5094707;28;20062;-59
2021/07/05 08:03:55;;;;;;;5.50;2.35;;;;;;;;;;5093630;28;20039;-59
2021/07/05 08:06:22;;;;;;;28.73;14.55;;;;;;;;;;5094736;28;20327;-59
2021/07/05 08:08:51;;;;;;;14.25;9.27;;;;;;;;;;5093981;28;20460;-59
2021/07/05 08:11:17;;;;;;;9.73;6.35;;;;;;;;;;5098185;28;20044;-59
2021/07/05 08:13:45;;;;;;;9.52;3.67;;;;;;;;;;5097688;28;20169;-58
2021/07/05 08:16:11;;;;;;;4.25;1.40;;;;;;;;;;5097468;28;20024;-59
2021/07/05 08:18:37;;;;;;;3.30;1.80;;;;;;;;;;5097857;28;20050;-59
2021/07/05 08:21:04;;;;;;;3.60;1.75;;;;;;;;;;5097591;28;20028;-59
2021/07/05 08:23:30;;;;;;;1.75;0.98;;;;;;;;;;5097398;28;20465;-58
2021/07/05 08:25:57;;;;;;;1.90;0.98;;;;;;;;;;5096459;28;20024;-59
2021/07/05 08:28:24;;;;;;;1.88;1.05;;;;;;;;;;5097984;28;20365;-58
2021/07/05 08:30:51;;;;;;;2.53;1.52;;;;;;;;;;5097725;28;20031;-59
2021/07/05 08:33:17;;;;;;;5.20;1.17;;;;;;;;;;5098222;28;20127;-59
2021/07/05 08:35:43;;;;;;;1.85;1.10;;;;;;;;;;5097466;28;20025;-59
2021/07/05 08:38:09;;;;;;;1.80;1.02;;;;;;;;;;5096815;28;20052;-59
2021/07/05 08:40:35;;;;;;;4.53;1.58;;;;;;;;;;5097455;28;20024;-59
2021/07/05 08:43:01;;;;;;;2.47;1.17;;;;;;;;;;5096697;28;20078;-58
2021/07/05 08:45:27;;;;;;;2.08;0.90;;;;;;;;;;5097298;28;20119;-59
2021/07/05 08:47:54;;;;;;;4.20;1.25;;;;;;;;;;5097355;28;20362;-58
2021/07/05 08:50:21;;;;;;;1.95;1.00;;;;;;;;;;5096022;28;20047;-59
2021/07/05 08:52:47;;;;;;;3.17;1.08;;;;;;;;;;5097863;28;20024;-59
2021/07/05 08:55:14;;;;;;;1.40;0.90;;;;;;;;;;5096103;28;20080;-59
2021/07/05 08:57:41;;;;;;;2.08;1.13;;;;;;;;;;5096776;28;20020;-58
2021/07/05 09:00:12;;;;;;;1.52;0.80;;;;;;;;;;5095182;28;20051;-59
2021/07/05 09:02:38;;;;;;;3.30;0.95;;;;;;;;;;5097793;28;20024;-59
2021/07/05 09:05:05;;;;;;;1.60;0.77;;;;;;;;;;5096527;28;20081;-59
2021/07/05 09:07:31;;;;;;;2.58;1.17;;;;;;;;;;5097481;28;20024;-59
2021/07/05 09:09:58;;;;;;;3.08;1.05;;;;;;;;;;5096946;28;20048;-59
2021/07/05 09:12:28;;;;;;;2.15;0.80;;;;;;;;;;5097119;28;20360;-58
2021/07/05 09:15:10;;;;;;;1.83;1.02;;;;;;;;;;5096854;28;20024;-58
2021/07/05 09:17:41;;;;;;;3.33;1.40;;;;;;;;;;5097096;28;20428;-58
2021/07/05 09:20:13;;;;;;;4.20;1.48;;;;;;;;;;5096201;28;20462;-58
2021/07/05 09:22:59;;;;;;;2.22;0.90;;;;;;;;;;5096567;28;20543;-58
2021/07/05 09:25:37;;;;;;;1.58;0.70;;;;;;;;;;5097608;28;20031;-58
2021/07/05 09:28:07;;;;;;;2.03;0.90;;;;;;;;;;5095029;28;20031;-58
2021/07/05 09:30:53;;;;;;;1.15;0.52;;;;;;;;;;5094946;28;20024;-58
2021/07/05 09:33:26;;;;;;;1.30;0.80;;;;;;;;;;5095326;28;20052;-58
2021/07/05 09:35:56;;;;;;;2.17;1.00;;;;;;;;;;5096009;28;20024;-59
2021/07/05 09:38:36;;;;;;;1.33;0.52;;;;;;;;;;5096711;28;20099;-58
2021/07/05 09:41:18;;;;;;;1.92;0.77;;;;;;;;;;5096422;28;20548;-58
2021/07/05 09:43:48;;;;;;;2.08;0.60;;;;;;;;;;5096507;28;20036;-58
2021/07/05 09:46:14;;;;;;;3.72;1.20;;;;;;;;;;5096603;28;20028;-58
2021/07/05 09:48:47;;;;;;;1.15;0.43;;;;;;;;;;5096407;28;20338;-58
2021/07/05 09:51:17;;;;;;;1.63;0.82;;;;;;;;;;5096241;28;20103;-58
2021/07/05 09:53:44;;;;;;;1.85;0.68;;;;;;;;;;5096910;28;20115;-58
2021/07/05 09:56:24;;;;;;;2.42;0.70;;;;;;;;;;5095944;28;20032;-58
2021/07/05 09:58:51;;;;;;;2.20;1.10;;;;;;;;;;5095985;28;20369;-58
2021/07/05 10:01:35;;;;;;;1.50;0.80;;;;;;;;;;5096781;28;20024;-58
2021/07/05 10:04:05;;;;;;;1.85;0.90;;;;;;;;;;5095598;28;20034;-58
2021/07/05 10:06:37;;;;;;;1.75;0.93;;;;;;;;;;5095602;28;20025;-58
2021/07/05 10:09:07;;;;;;;1.83;1.13;;;;;;;;;;5095434;28;20449;-57
2021/07/05 10:11:33;;;;;;;2.30;1.48;;;;;;;;;;5095681;28;20377;-58
2021/07/05 10:14:13;;;;;;;1.52;0.77;;;;;;;;;;5095647;28;20039;-58
2021/07/05 10:16:43;;;;;;;3.35;1.67;;;;;;;;;;5095503;28;20039;-58
2021/07/05 10:19:10;;;;;;;1.52;0.95;;;;;;;;;;5094307;28;20054;-58
2021/07/05 10:21:37;;;;;;;1.90;0.98;;;;;;;;;;5094268;28;20457;-58
2021/07/05 10:24:05;;;;;;;1.65;0.88;;;;;;;;;;5095353;28;20111;-58
2021/07/05 10:26:31;;;;;;;2.38;1.52;;;;;;;;;;5095330;28;20069;-58
2021/07/05 10:28:57;;;;;;;1.65;0.75;;;;;;;;;;5095609;28;20035;-58
2021/07/05 10:31:27;;;;;;;2.53;1.17;;;;;;;;;;5094971;28;20028;-58
2021/07/05 10:33:53;;;;;;;1.40;0.47;;;;;;;;;;5095119;28;20157;-58
2021/07/05 10:36:21;;;;;;;0.80;0.55;;;;;;;;;;5094652;28;20346;-58
2021/07/05 10:38:51;;;;;;;1.75;0.85;;;;;;;;;;5095093;28;20028;-57
2021/07/05 10:41:19;;;;;;;2.03;1.05;;;;;;;;;;5095356;28;20020;-58
2021/07/05 10:43:49;;;;;;;1.30;0.70;;;;;;;;;;5094491;28;20054;-58
2021/07/05 10:46:34;;;;;;;3.35;1.30;;;;;;;;;;5095066;28;20024;-58
2021/07/05 10:49:00;;;;;;;1.30;0.73;;;;;;;;;;5095274;28;20024;-58
2021/07/05 10:51:39;;;;;;;2.70;0.82;;;;;;;;;;5095355;28;20125;-58
2021/07/05 10:54:05;;;;;;;1.88;0.90;;;;;;;;;;5095468;28;20425;-58
2021/07/05 10:56:42;;;;;;;1.30;0.90;;;;;;;;;;5093569;28;20031;-58
2021/07/05 10:59:14;;;;;;;2.15;1.33;;;;;;;;;;5095200;28;20354;-58
2021/07/05 11:01:41;;;;;;;2.72;1.27;;;;;;;;;;5094816;28;20472;-58
2021/07/05 11:04:29;;;;;;;2.08;1.17;;;;;;;;;;5094580;28;20040;-58
2021/07/05 11:06:57;;;;;;;4.47;1.40;;;;;;;;;;5094917;28;20069;-58
2021/07/05 11:09:24;;;;;;;7.25;1.58;;;;;;;;;;5093741;28;20072;-58
2021/07/05 11:11:55;;;;;;;1.70;0.93;;;;;;;;;;5093239;28;20028;-58
2021/07/05 11:14:23;;;;;;;2.05;1.17;;;;;;;;;;5093767;28;20412;-58
2021/07/05 11:16:59;;;;;;;2.17;1.00;;;;;;;;;;5094210;28;20508;-58
2021/07/05 11:19:33;;;;;;;1.52;0.98;;;;;;;;;;5094781;28;20347;-58
2021/07/05 11:22:09;;;;;;;2.00;1.05;;;;;;;;;;5094527;28;20016;-58
2021/07/05 11:24:35;;;;;;;1.58;0.88;;;;;;;;;;5093141;28;20065;-58
2021/07/05 11:27:31;;;;;;;1.77;1.10;;;;;;;;;;5094287;28;20020;-58
2021/07/05 11:30:11;;;;;;;1.15;0.50;;;;;;;;;;5081267;28;20077;-58
2021/07/05 11:32:44;;;;;;;1.45;0.90;;;;;;;;;;5094593;28;20020;-58
2021/07/05 11:35:47;;;;;;;1.67;0.98;;;;;;;;;;5093091;28;20369;-58
2021/07/05 11:38:26;;;;;;;0.98;0.47;;;;;;;;;;5031510;28;20391;-58
2021/07/05 11:40:57;;;;;;;3.42;0.93;;;;;;;;;;5084643;28;20482;-58
2021/07/05 11:43:56;;;;;;;3.33;1.40;;;;;;;;;;5094325;28;20404;-58
2021/07/05 11:46:31;;;;;;;1.90;0.70;;;;;;;;;;5060613;28;20024;-58
2021/07/05 11:48:57;;;;;;;1.73;0.82;;;;;;;;;;5093914;28;20024;-58
2021/07/05 11:51:26;;;;;;;1.88;0.95;;;;;;;;;;5093351;28;20020;-58
2021/07/05 11:53:53;;;;;;;1.95;0.75;;;;;;;;;;5093935;28;20028;-58
2021/07/05 11:56:29;;;;;;;2.60;1.50;;;;;;;;;;5094120;28;20369;-58
2021/07/05 11:58:55;;;;;;;1.08;0.55;;;;;;;;;;5091212;28;20043;-58
2021/07/05 12:01:21;;;;;;;1.60;1.00;;;;;;;;;;5093835;28;20020;-58
2021/07/05 12:03:54;;;;;;;1.77;0.77;;;;;;;;;;5092841;28;20051;-58
2021/07/05 12:06:20;;;;;;;1.95;1.20;;;;;;;;;;5093824;28;20020;-58
2021/07/05 12:08:53;;;;;;;1.98;0.98;;;;;;;;;;5092462;28;20020;-58
2021/07/05 12:11:34;;;;;;;1.50;0.82;;;;;;;;;;5093883;28;20028;-58
2021/07/05 12:14:08;;;;;;;2.00;0.90;;;;;;;;;;5094372;28;20418;-58
2021/07/05 12:16:35;;;;;;;1.70;0.90;;;;;;;;;;5092195;28;20027;-58
2021/07/05 12:19:02;;;;;;;1.73;0.85;;;;;;;;;;5093826;28;20052;-58
2021/07/05 12:21:54;;;;;;;2.28;1.27;;;;;;;;;;5094062;28;20533;-58
2021/07/05 12:24:22;;;;;;;1.55;0.75;;;;;;;;;;5090478;28;20131;-58
2021/07/05 12:26:50;;;;;;;2.65;0.80;;;;;;;;;;5093859;28;20024;-58
2021/07/05 12:29:28;;;;;;;1.90;0.80;;;;;;;;;;5093357;28;20024;-58
2021/07/05 12:32:12;;;;;;;1.13;0.55;;;;;;;;;;5094308;28;20425;-58
2021/07/05 12:34:58;;;;;;;1.88;0.90;;;;;;;;;;5094147;28;20091;-58
2021/07/05 12:37:30;;;;;;;2.72;1.15;;;;;;;;;;5093538;28;20032;-58
2021/07/05 12:40:12;;;;;;;1.35;0.80;;;;;;;;;;5093754;28;20016;-58
2021/07/05 12:42:44;;;;;;;1.70;0.90;;;;;;;;;;5093528;28;20024;-58
2021/07/05 12:45:28;;;;;;;1.92;1.35;;;;;;;;;;5094049;28;20107;-58
2021/07/05 12:47:53;;;;;;;1.42;0.50;;;;;;;;;;5093401;28;20034;-58
2021/07/05 12:50:22;;;;;;;1.73;0.90;;;;;;;;;;5093424;28;20107;-59
2021/07/05 12:53:02;;;;;;;1.40;0.75;;;;;;;;;;5094048;28;20435;-59
2021/07/05 12:55:31;;;;;;;1.23;0.75;;;;;;;;;;5094531;28;20024;-58
2021/07/05 12:57:57;;;;;;;1.10;0.60;;;;;;;;;;5097339;28;20057;-58
2021/07/05 13:00:24;;;;;;;1.88;0.70;;;;;;;;;;5096935;28;20365;-59
2021/07/05 13:02:51;;;;;;;2.00;0.80;;;;;;;;;;5097386;28;20020;-58
2021/07/05 13:05:19;;;;;;;2.03;0.77;;;;;;;;;;5095704;28;20024;-58
2021/07/05 13:07:56;;;;;;;1.48;0.73;;;;;;;;;;5095666;28;20020;-58
2021/07/05 13:10:32;;;;;;;1.75;1.10;;;;;;;;;;5095184;28;20047;-58
2021/07/05 13:13:03;;;;;;;3.28;1.00;;;;;;;;;;5097520;28;20028;-58
2021/07/05 13:15:29;;;;;;;;;;;;;;;;;;5096535;28;20454;-58
2021/07/05 13:17:58;;;;;;;2.60;1.02;;;;;;;;;;5097400;28;19957;-58
2021/07/05 13:20:24;;;;;;;1.83;0.80;;;;;;;;;;5096761;28;20028;-58
2021/07/05 13:22:50;;;;;;;4.20;0.82;;;;;;;;;;5096705;28;20438;-58
2021/07/05 13:25:16;;;;;;;1.15;0.50;;;;;;;;;;5097074;28;20103;-58
2021/07/05 13:27:42;;;;;;;1.25;0.60;;;;;;;;;;5096525;28;20099;-58
2021/07/05 13:30:13;;;;;;;1.13;0.52;;;;;;;;;;5096469;28;20031;-58
2021/07/05 13:32:52;;;;;;;1.42;0.70;;;;;;;;;;5096628;28;20067;-59
2021/07/05 13:35:18;;;;;;;1.17;0.60;;;;;;;;;;5096645;28;20469;-58
2021/07/05 13:37:47;;;;;;;2.20;0.60;;;;;;;;;;5097167;28;20028;-58
2021/07/05 13:40:14;;;;;;;1.27;0.60;;;;;;;;;;5096462;28;20445;-58
2021/07/05 13:42:40;;;;;;;1.40;0.52;;;;;;;;;;5096565;28;20077;-58
2021/07/05 13:45:12;;;;;;;1.05;0.45;;;;;;;;;;5096537;28;20029;-58
2021/07/05 13:47:52;;;;;;;1.48;0.60;;;;;;;;;;5095775;28;20511;-58
2021/07/05 13:50:19;;;;;;;0.95;0.50;;;;;;;;;;5096758;28;20358;-58
2021/07/05 13:52:48;;;;;;;1.60;0.73;;;;;;;;;;5096436;28;20023;-58
2021/07/05 13:55:32;;;;;;;1.33;0.73;;;;;;;;;;5094816;28;20020;-58
2021/07/05 13:58:00;;;;;;;0.95;0.50;;;;;;;;;;5096092;28;20043;-58
2021/07/05 14:00:27;;;;;;;1.17;0.52;;;;;;;;;;5094335;28;20020;-58
2021/07/05 14:02:53;;;;;;;1.00;0.43;;;;;;;;;;5095287;28;20118;-58
2021/07/05 14:05:27;;;;;;;1.10;0.50;;;;;;;;;;5095874;28;20032;-58
2021/07/05 14:07:54;;;;;;;2.00;0.77;;;;;;;;;;5094455;28;20115;-58
2021/07/05 14:10:22;;;;;;;1.50;0.50;;;;;;;;;;5095980;28;20050;-58
2021/07/05 14:12:48;;;;;;;1.55;0.63;;;;;;;;;;5095770;28;20059;-58
2021/07/05 14:15:14;;;;;;;4.55;0.80;;;;;;;;;;5095717;28;20073;-58
2021/07/05 14:17:40;;;;;;;2.72;0.93;;;;;;;;;;5095899;28;20505;-58
2021/07/05 14:20:07;;;;;;;1.98;0.35;;;;;;;;;;5095930;28;20031;-58
2021/07/05 14:22:33;;;;;;;1.17;0.70;;;;;;;;;;5077858;28;20031;-58
2021/07/05 14:25:00;;;;;;;0.90;0.52;;;;;;;;;;5095507;28;20024;-58
2021/07/05 14:27:26;;;;;;;1.33;0.63;;;;;;;;;;5094760;28;20020;-58
2021/07/05 14:29:52;;;;;;;1.55;0.73;;;;;;;;;;5095448;28;20439;-58
2021/07/05 14:32:18;;;;;;;0.85;0.45;;;;;;;;;;5095932;28;20012;-58
2021/07/05 14:34:44;;;;;;;1.73;0.93;;;;;;;;;;5093734;28;20027;-58
2021/07/05 14:37:12;;;;;;;1.00;0.55;;;;;;;;;;5095316;28;20100;-58
2021/07/05 14:39:38;;;;;;;1.23;0.60;;;;;;;;;;5095144;28;20017;-58
2021/07/05 14:42:04;;;;;;;0.93;0.50;;;;;;;;;;5095403;28;20024;-58
2021/07/05 14:44:30;;;;;;;1.52;0.70;;;;;;;;;;5095349;28;20347;-58
2021/07/05 14:46:56;;;;;;;2.20;0.70;;;;;;;;;;5095769;28;20154;-58
2021/07/05 14:49:22;;;;;;;1.58;0.73;;;;;;;;;;5094968;28;20481;-58
2021/07/05 14:51:49;;;;;;;1.40;0.70;;;;;;;;;;5094908;28;20458;-58